sensor_id;sensor_type;location;lat;lon;timestamp;temperature;humidity
3246;DHT22;1635;48.000;10.582;2022-11-15T00:02:08;3.00;99.90
3246;DHT22;1635;48.000;10.582;2022-11-15T00:04:54;3.00;99.90
3246;DHT22;1635;48.000;10.582;2022-11-15T00:07:39;3.00;99.90
3246;DHT22;1635;48.000;10.582;2022-11-15T00:10:41;3.00;99.90
3246;DHT22;1635;48.000;10.582;2022-11-15T00:13:29;2.90;99.90
3246;DHT22;1635;48.000;10.582;2022-11-15T00:16:16;2.90;99.90
3246;DHT22;1635;48.000;10.582;2022-11-15T00:19:03;2.90;99.90
3246;DHT22;1635;48.000;10.582;2022-11-15T00:21:50;2.90;99.90
3246;DHT22;1635;48.000;10.582;2022-11-15T00:24:37;2.80;99.90
3246;DHT22;1635;48.000;10.582;2022-11-15T00:27:24;2.80;99.90
3246;DHT22;1635;48.000;10.582;2022-11-15T00:30:11;2.80;99.90
3246;DHT22;1635;48.000;10.582;2022-11-15T00:33:02;2.80;99.90
3246;DHT22;1635;48.000;10.582;2022-11-15T00:35:48;2.80;99.90
3246;DHT22;1635;48.000;10.582;2022-11-15T00:38:37;2.80;99.90
3246;DHT22;1635;48.000;10.582;2022-11-15T00:41:24;2.80;99.90
3246;DHT22;1635;48.000;10.582;2022-11-15T00:44:10;2.70;99.90
3246;DHT22;1635;48.000;10.582;2022-11-15T00:46:57;2.70;99.90
3246;DHT22;1635;48.000;10.582;2022-11-15T00:49:44;2.70;99.90
3246;DHT22;1635;48.000;10.582;2022-11-15T00:52:31;2.70;99.90
3246;DHT22;1635;48.000;10.582;2022-11-15T00:55:19;2.70;99.90
3246;DHT22;1635;48.000;10.582;2022-11-15T00:58:06;2.60;99.90
3246;DHT22;1635;48.000;10.582;2022-11-15T01:00:53;2.60;99.90
3246;DHT22;1635;48.000;10.582;2022-11-15T01:03:41;2.60;99.90
3246;DHT22;1635;48.000;10.582;2022-11-15T01:06:28;2.60;99.90
3246;DHT22;1635;48.000;10.582;2022-11-15T01:09:15;2.60;99.90
3246;DHT22;1635;48.000;10.582;2022-11-15T01:12:01;2.60;99.90
3246;DHT22;1635;48.000;10.582;2022-11-15T01:14:49;2.60;99.90
3246;DHT22;1635;48.000;10.582;2022-11-15T01:17:37;2.60;99.90
3246;DHT22;1635;48.000;10.582;2022-11-15T01:20:24;2.60;99.90
3246;DHT22;1635;48.000;10.582;2022-11-15T01:23:11;2.60;99.90
3246;DHT22;1635;48.000;10.582;2022-11-15T01:26:05;2.60;99.90
3246;DHT22;1635;48.000;10.582;2022-11-15T01:28:54;2.60;99.90
3246;DHT22;1635;48.000;10.582;2022-11-15T01:31:41;2.60;99.90
3246;DHT22;1635;48.000;10.582;2022-11-15T01:34:27;2.60;99.90
3246;DHT22;1635;48.000;10.582;2022-11-15T01:37:14;2.70;99.90
3246;DHT22;1635;48.000;10.582;2022-11-15T01:40:01;2.70;99.90
3246;DHT22;1635;48.000;10.582;2022-11-15T01:42:52;2.70;99.90
3246;DHT22;1635;48.000;10.582;2022-11-15T01:45:39;2.60;99.90
3246;DHT22;1635;48.000;10.582;2022-11-15T01:48:31;2.60;99.90
3246;DHT22;1635;48.000;10.582;2022-11-15T01:51:20;2.70;99.90
3246;DHT22;1635;48.000;10.582;2022-11-15T01:54:11;2.70;99.90
3246;DHT22;1635;48.000;10.582;2022-11-15T01:57:06;2.80;99.90
3246;DHT22;1635;48.000;10.582;2022-11-15T01:59:53;2.70;99.90
3246;DHT22;1635;48.000;10.582;2022-11-15T02:02:40;2.70;99.90
3246;DHT22;1635;48.000;10.582;2022-11-15T02:05:27;2.80;99.90
3246;DHT22;1635;48.000;10.582;2022-11-15T02:08:16;2.80;99.90
3246;DHT22;1635;48.000;10.582;2022-11-15T02:11:09;2.70;99.90
3246;DHT22;1635;48.000;10.582;2022-11-15T02:13:58;2.60;99.90
3246;DHT22;1635;48.000;10.582;2022-11-15T02:16:52;2.60;99.90
3246;DHT22;1635;48.000;10.582;2022-11-15T02:26:29;2.40;99.90
3246;DHT22;1635;48.000;10.582;2022-11-15T02:29:40;2.50;99.90
3246;DHT22;1635;48.000;10.582;2022-11-15T02:32:54;2.40;99.90
3246;DHT22;1635;48.000;10.582;2022-11-15T02:36:02;2.30;99.90
3246;DHT22;1635;48.000;10.582;2022-11-15T02:39:18;2.30;99.90
3246;DHT22;1635;48.000;10.582;2022-11-15T02:42:35;2.30;99.90
3246;DHT22;1635;48.000;10.582;2022-11-15T02:45:48;2.20;99.90
3246;DHT22;1635;48.000;10.582;2022-11-15T02:48:37;2.10;99.90
3246;DHT22;1635;48.000;10.582;2022-11-15T02:51:24;2.10;99.90
3246;DHT22;1635;48.000;10.582;2022-11-15T02:54:20;2.20;99.90
3246;DHT22;1635;48.000;10.582;2022-11-15T02:57:16;2.10;99.90
3246;DHT22;1635;48.000;10.582;2022-11-15T03:00:20;2.00;99.90
3246;DHT22;1635;48.000;10.582;2022-11-15T03:10:15;1.90;99.90
3246;DHT22;1635;48.000;10.582;2022-11-15T03:13:14;1.90;99.90
3246;DHT22;1635;48.000;10.582;2022-11-15T03:16:19;1.90;99.90
3246;DHT22;1635;48.000;10.582;2022-11-15T03:23:03;1.80;99.90
3246;DHT22;1635;48.000;10.582;2022-11-15T03:25:50;1.90;99.90
3246;DHT22;1635;48.000;10.582;2022-11-15T03:31:31;1.90;99.90
3246;DHT22;1635;48.000;10.582;2022-11-15T03:35:04;1.80;99.90
3246;DHT22;1635;48.000;10.582;2022-11-15T03:41:07;1.60;99.90
3246;DHT22;1635;48.000;10.582;2022-11-15T03:47:22;1.60;99.90
3246;DHT22;1635;48.000;10.582;2022-11-15T03:50:15;1.40;99.90
3246;DHT22;1635;48.000;10.582;2022-11-15T03:53:02;1.40;99.90
3246;DHT22;1635;48.000;10.582;2022-11-15T03:55:50;1.40;99.90
3246;DHT22;1635;48.000;10.582;2022-11-15T03:58:35;1.30;99.90
3246;DHT22;1635;48.000;10.582;2022-11-15T04:01:22;1.30;99.90
3246;DHT22;1635;48.000;10.582;2022-11-15T04:04:08;1.30;99.90
3246;DHT22;1635;48.000;10.582;2022-11-15T04:06:55;1.20;99.90
3246;DHT22;1635;48.000;10.582;2022-11-15T04:09:40;1.20;99.90
3246;DHT22;1635;48.000;10.582;2022-11-15T04:13:01;1.10;99.90
3246;DHT22;1635;48.000;10.582;2022-11-15T04:15:48;1.00;99.90
3246;DHT22;1635;48.000;10.582;2022-11-15T04:18:35;1.10;99.90
3246;DHT22;1635;48.000;10.582;2022-11-15T04:21:21;1.10;99.90
3246;DHT22;1635;48.000;10.582;2022-11-15T04:24:25;1.00;99.90
3246;DHT22;1635;48.000;10.582;2022-11-15T04:27:11;0.90;99.90
3246;DHT22;1635;48.000;10.582;2022-11-15T04:29:58;0.90;99.90
3246;DHT22;1635;48.000;10.582;2022-11-15T04:32:43;0.90;99.90
3246;DHT22;1635;48.000;10.582;2022-11-15T04:35:29;0.90;99.90
3246;DHT22;1635;48.000;10.582;2022-11-15T04:38:14;0.90;99.90
3246;DHT22;1635;48.000;10.582;2022-11-15T04:41:01;0.90;99.90
3246;DHT22;1635;48.000;10.582;2022-11-15T04:43:49;0.90;99.90
3246;DHT22;1635;48.000;10.582;2022-11-15T04:46:35;1.10;99.90
3246;DHT22;1635;48.000;10.582;2022-11-15T04:49:21;1.20;99.90
3246;DHT22;1635;48.000;10.582;2022-11-15T04:52:06;1.10;99.90
3246;DHT22;1635;48.000;10.582;2022-11-15T04:54:52;1.10;99.90
3246;DHT22;1635;48.000;10.582;2022-11-15T04:57:38;1.00;99.90
3246;DHT22;1635;48.000;10.582;2022-11-15T05:00:26;1.00;99.90
3246;DHT22;1635;48.000;10.582;2022-11-15T05:03:15;1.00;99.90
3246;DHT22;1635;48.000;10.582;2022-11-15T05:06:19;1.10;99.90
3246;DHT22;1635;48.000;10.582;2022-11-15T05:09:05;1.00;99.90
3246;DHT22;1635;48.000;10.582;2022-11-15T05:11:50;0.90;99.90
3246;DHT22;1635;48.000;10.582;2022-11-15T05:14:36;0.80;99.90
3246;DHT22;1635;48.000;10.582;2022-11-15T05:17:22;0.80;99.90
3246;DHT22;1635;48.000;10.582;2022-11-15T05:20:29;0.90;99.90
3246;DHT22;1635;48.000;10.582;2022-11-15T05:27:39;1.00;99.90
3246;DHT22;1635;48.000;10.582;2022-11-15T05:30:29;1.10;99.90
3246;DHT22;1635;48.000;10.582;2022-11-15T05:33:17;1.00;99.90
3246;DHT22;1635;48.000;10.582;2022-11-15T05:45:31;0.90;99.90
3246;DHT22;1635;48.000;10.582;2022-11-15T05:52:40;1.00;99.90
3246;DHT22;1635;48.000;10.582;2022-11-15T05:59:23;1.10;99.90
3246;DHT22;1635;48.000;10.582;2022-11-15T06:02:10;1.00;99.90
3246;DHT22;1635;48.000;10.582;2022-11-15T06:04:56;1.00;99.90
3246;DHT22;1635;48.000;10.582;2022-11-15T06:07:42;0.90;99.90
3246;DHT22;1635;48.000;10.582;2022-11-15T06:10:29;0.80;99.90
3246;DHT22;1635;48.000;10.582;2022-11-15T06:13:14;0.70;99.90
3246;DHT22;1635;48.000;10.582;2022-11-15T06:16:00;0.60;99.90
3246;DHT22;1635;48.000;10.582;2022-11-15T06:18:49;0.70;99.90
3246;DHT22;1635;48.000;10.582;2022-11-15T06:21:35;0.70;99.90
3246;DHT22;1635;48.000;10.582;2022-11-15T06:24:22;0.80;99.90
3246;DHT22;1635;48.000;10.582;2022-11-15T06:27:10;0.90;99.90
3246;DHT22;1635;48.000;10.582;2022-11-15T06:29:57;0.90;99.90
3246;DHT22;1635;48.000;10.582;2022-11-15T06:32:44;1.00;99.90
3246;DHT22;1635;48.000;10.582;2022-11-15T06:35:34;0.90;99.90
3246;DHT22;1635;48.000;10.582;2022-11-15T06:38:21;1.00;99.90
3246;DHT22;1635;48.000;10.582;2022-11-15T06:41:09;1.00;99.90
3246;DHT22;1635;48.000;10.582;2022-11-15T06:43:57;1.00;99.90
3246;DHT22;1635;48.000;10.582;2022-11-15T06:46:44;0.90;99.90
3246;DHT22;1635;48.000;10.582;2022-11-15T06:49:31;0.90;99.90
3246;DHT22;1635;48.000;10.582;2022-11-15T06:52:19;0.90;99.90
3246;DHT22;1635;48.000;10.582;2022-11-15T06:55:10;1.10;99.90
3246;DHT22;1635;48.000;10.582;2022-11-15T06:57:57;1.20;99.90
3246;DHT22;1635;48.000;10.582;2022-11-15T07:00:46;1.30;99.90
3246;DHT22;1635;48.000;10.582;2022-11-15T07:03:35;1.40;99.90
3246;DHT22;1635;48.000;10.582;2022-11-15T07:06:21;1.40;99.90
3246;DHT22;1635;48.000;10.582;2022-11-15T07:09:10;1.50;99.90
3246;DHT22;1635;48.000;10.582;2022-11-15T07:16:33;1.80;99.90
3246;DHT22;1635;48.000;10.582;2022-11-15T07:19:20;2.00;99.90
3246;DHT22;1635;48.000;10.582;2022-11-15T07:22:07;2.10;99.90
3246;DHT22;1635;48.000;10.582;2022-11-15T07:24:54;2.20;99.90
3246;DHT22;1635;48.000;10.582;2022-11-15T07:27:42;2.30;99.90
3246;DHT22;1635;48.000;10.582;2022-11-15T07:30:29;2.40;99.90
3246;DHT22;1635;48.000;10.582;2022-11-15T07:33:15;2.60;99.90
3246;DHT22;1635;48.000;10.582;2022-11-15T07:36:04;3.00;99.90
3246;DHT22;1635;48.000;10.582;2022-11-15T07:38:50;3.40;99.90
3246;DHT22;1635;48.000;10.582;2022-11-15T07:41:37;3.80;99.90
3246;DHT22;1635;48.000;10.582;2022-11-15T07:44:25;4.60;99.90
3246;DHT22;1635;48.000;10.582;2022-11-15T07:47:11;5.20;99.90
3246;DHT22;1635;48.000;10.582;2022-11-15T07:49:57;5.50;99.90
3246;DHT22;1635;48.000;10.582;2022-11-15T07:52:44;5.70;99.90
3246;DHT22;1635;48.000;10.582;2022-11-15T07:55:30;6.20;99.90
3246;DHT22;1635;48.000;10.582;2022-11-15T07:58:16;6.70;99.90
3246;DHT22;1635;48.000;10.582;2022-11-15T08:01:08;7.40;99.90
3246;DHT22;1635;48.000;10.582;2022-11-15T08:03:55;8.00;99.90
3246;DHT22;1635;48.000;10.582;2022-11-15T08:06:41;8.40;99.90
3246;DHT22;1635;48.000;10.582;2022-11-15T08:09:28;8.70;99.90
3246;DHT22;1635;48.000;10.582;2022-11-15T08:12:14;9.40;99.90
3246;DHT22;1635;48.000;10.582;2022-11-15T08:15:00;10.20;99.90
3246;DHT22;1635;48.000;10.582;2022-11-15T08:17:59;10.70;99.90
3246;DHT22;1635;48.000;10.582;2022-11-15T08:20:49;11.20;99.90
3246;DHT22;1635;48.000;10.582;2022-11-15T08:23:34;11.30;99.90
3246;DHT22;1635;48.000;10.582;2022-11-15T08:26:21;10.80;99.90
3246;DHT22;1635;48.000;10.582;2022-11-15T08:29:07;10.20;99.90
3246;DHT22;1635;48.000;10.582;2022-11-15T08:31:55;10.10;99.90
3246;DHT22;1635;48.000;10.582;2022-11-15T08:34:41;10.20;99.90
3246;DHT22;1635;48.000;10.582;2022-11-15T08:37:28;10.40;99.90
3246;DHT22;1635;48.000;10.582;2022-11-15T08:40:13;10.40;99.90
3246;DHT22;1635;48.000;10.582;2022-11-15T08:43:00;10.30;99.90
3246;DHT22;1635;48.000;10.582;2022-11-15T08:45:48;10.20;99.90
3246;DHT22;1635;48.000;10.582;2022-11-15T08:48:35;9.80;99.90
3246;DHT22;1635;48.000;10.582;2022-11-15T08:51:20;9.50;99.90
3246;DHT22;1635;48.000;10.582;2022-11-15T08:54:07;9.40;99.90
3246;DHT22;1635;48.000;10.582;2022-11-15T08:56:53;9.10;99.90
3246;DHT22;1635;48.000;10.582;2022-11-15T08:59:38;9.00;99.90
3246;DHT22;1635;48.000;10.582;2022-11-15T09:02:24;8.90;99.90
3246;DHT22;1635;48.000;10.582;2022-11-15T09:05:10;9.00;99.90
3246;DHT22;1635;48.000;10.582;2022-11-15T09:07:55;9.00;99.90
3246;DHT22;1635;48.000;10.582;2022-11-15T09:10:41;8.90;99.90
3246;DHT22;1635;48.000;10.582;2022-11-15T09:13:26;8.80;99.90
3246;DHT22;1635;48.000;10.582;2022-11-15T09:16:12;8.80;99.90
3246;DHT22;1635;48.000;10.582;2022-11-15T09:18:57;8.80;99.90
3246;DHT22;1635;48.000;10.582;2022-11-15T09:21:43;8.80;99.90
3246;DHT22;1635;48.000;10.582;2022-11-15T09:24:28;8.70;99.90
3246;DHT22;1635;48.000;10.582;2022-11-15T09:27:14;8.80;99.90
3246;DHT22;1635;48.000;10.582;2022-11-15T09:30:00;8.80;99.90
3246;DHT22;1635;48.000;10.582;2022-11-15T09:32:48;8.90;99.90
3246;DHT22;1635;48.000;10.582;2022-11-15T09:35:33;8.90;99.90
3246;DHT22;1635;48.000;10.582;2022-11-15T09:38:20;9.00;99.90
3246;DHT22;1635;48.000;10.582;2022-11-15T09:50:51;9.10;99.90
3246;DHT22;1635;48.000;10.582;2022-11-15T09:53:34;9.20;99.90
3246;DHT22;1635;48.000;10.582;2022-11-15T09:56:31;9.20;99.90
3246;DHT22;1635;48.000;10.582;2022-11-15T10:05:14;9.50;99.90
3246;DHT22;1635;48.000;10.582;2022-11-15T10:11:01;9.60;99.90
3246;DHT22;1635;48.000;10.582;2022-11-15T10:13:56;9.70;99.90
3246;DHT22;1635;48.000;10.582;2022-11-15T10:17:04;9.90;99.90
3246;DHT22;1635;48.000;10.582;2022-11-15T10:20:02;10.00;99.90
3246;DHT22;1635;48.000;10.582;2022-11-15T10:22:44;10.10;99.90
3246;DHT22;1635;48.000;10.582;2022-11-15T10:25:38;10.20;99.90
3246;DHT22;1635;48.000;10.582;2022-11-15T10:28:17;10.30;99.90
3246;DHT22;1635;48.000;10.582;2022-11-15T10:30:54;10.30;99.90
3246;DHT22;1635;48.000;10.582;2022-11-15T10:33:38;10.30;99.90
3246;DHT22;1635;48.000;10.582;2022-11-15T10:38:55;10.50;99.90
3246;DHT22;1635;48.000;10.582;2022-11-15T10:46:31;10.90;99.90
3246;DHT22;1635;48.000;10.582;2022-11-15T10:49:27;10.90;99.90
3246;DHT22;1635;48.000;10.582;2022-11-15T10:52:16;11.00;99.90
3246;DHT22;1635;48.000;10.582;2022-11-15T10:55:19;11.10;99.90
3246;DHT22;1635;48.000;10.582;2022-11-15T10:57:53;11.20;99.90
3246;DHT22;1635;48.000;10.582;2022-11-15T11:00:29;11.30;99.90
3246;DHT22;1635;48.000;10.582;2022-11-15T11:03:02;11.40;99.90
3246;DHT22;1635;48.000;10.582;2022-11-15T11:05:39;11.50;99.90
3246;DHT22;1635;48.000;10.582;2022-11-15T11:10:56;11.80;99.90
3246;DHT22;1635;48.000;10.582;2022-11-15T11:13:37;11.90;99.90
3246;DHT22;1635;48.000;10.582;2022-11-15T11:17:20;12.00;99.90
3246;DHT22;1635;48.000;10.582;2022-11-15T11:25:51;12.30;99.90
3246;DHT22;1635;48.000;10.582;2022-11-15T11:28:42;12.50;99.90
3246;DHT22;1635;48.000;10.582;2022-11-15T11:40:30;14.70;99.90
3246;DHT22;1635;48.000;10.582;2022-11-15T11:43:31;15.70;99.90
3246;DHT22;1635;48.000;10.582;2022-11-15T11:48:42;17.70;99.90
3246;DHT22;1635;48.000;10.582;2022-11-15T11:51:42;17.90;99.90
3246;DHT22;1635;48.000;10.582;2022-11-15T11:54:23;18.50;99.90
3246;DHT22;1635;48.000;10.582;2022-11-15T11:56:53;18.70;99.90
3246;DHT22;1635;48.000;10.582;2022-11-15T11:59:42;19.20;99.90
3246;DHT22;1635;48.000;10.582;2022-11-15T12:02:37;19.00;99.90
3246;DHT22;1635;48.000;10.582;2022-11-15T12:05:22;18.80;99.90
3246;DHT22;1635;48.000;10.582;2022-11-15T12:08:03;18.60;99.90
3246;DHT22;1635;48.000;10.582;2022-11-15T12:10:33;19.40;99.90
3246;DHT22;1635;48.000;10.582;2022-11-15T12:13:33;20.20;99.90
3246;DHT22;1635;48.000;10.582;2022-11-15T12:16:12;20.10;99.90
3246;DHT22;1635;48.000;10.582;2022-11-15T12:18:44;20.00;99.90
3246;DHT22;1635;48.000;10.582;2022-11-15T12:21:19;20.30;99.90
3246;DHT22;1635;48.000;10.582;2022-11-15T12:24:09;20.40;99.90
3246;DHT22;1635;48.000;10.582;2022-11-15T12:31:56;21.70;99.90
3246;DHT22;1635;48.000;10.582;2022-11-15T12:34:41;21.20;99.90
3246;DHT22;1635;48.000;10.582;2022-11-15T12:45:34;17.70;99.90
3246;DHT22;1635;48.000;10.582;2022-11-15T13:14:47;17.90;99.90
3246;DHT22;1635;48.000;10.582;2022-11-15T13:17:31;17.80;99.90
3246;DHT22;1635;48.000;10.582;2022-11-15T13:23:12;16.50;99.90
3246;DHT22;1635;48.000;10.582;2022-11-15T13:25:52;16.10;99.90
3246;DHT22;1635;48.000;10.582;2022-11-15T13:33:49;14.80;99.90
3246;DHT22;1635;48.000;10.582;2022-11-15T13:36:43;14.40;99.90
3246;DHT22;1635;48.000;10.582;2022-11-15T13:39:33;14.00;99.90
3246;DHT22;1635;48.000;10.582;2022-11-15T13:42:04;13.70;99.90
3246;DHT22;1635;48.000;10.582;2022-11-15T13:44:33;13.40;99.90
3246;DHT22;1635;48.000;10.582;2022-11-15T13:47:13;13.30;99.90
3246;DHT22;1635;48.000;10.582;2022-11-15T13:49:42;13.00;99.90
3246;DHT22;1635;48.000;10.582;2022-11-15T13:52:13;13.00;99.90
3246;DHT22;1635;48.000;10.582;2022-11-15T14:00:34;13.00;99.90
3246;DHT22;1635;48.000;10.582;2022-11-15T14:06:22;12.90;99.90
3246;DHT22;1635;48.000;10.582;2022-11-15T14:12:00;12.70;99.90
3246;DHT22;1635;48.000;10.582;2022-11-15T14:14:30;12.50;99.90
3246;DHT22;1635;48.000;10.582;2022-11-15T14:17:00;12.60;99.90
3246;DHT22;1635;48.000;10.582;2022-11-15T14:19:36;12.60;99.90
3246;DHT22;1635;48.000;10.582;2022-11-15T14:25:19;13.00;99.90
3246;DHT22;1635;48.000;10.582;2022-11-15T14:28:13;13.10;99.90
3246;DHT22;1635;48.000;10.582;2022-11-15T14:30:43;13.00;99.90
3246;DHT22;1635;48.000;10.582;2022-11-15T14:33:32;12.80;99.90
3246;DHT22;1635;48.000;10.582;2022-11-15T14:38:34;12.50;99.90
3246;DHT22;1635;48.000;10.582;2022-11-15T14:41:03;12.50;99.90
3246;DHT22;1635;48.000;10.582;2022-11-15T14:43:31;12.60;99.90
3246;DHT22;1635;48.000;10.582;2022-11-15T14:45:59;12.60;99.90
3246;DHT22;1635;48.000;10.582;2022-11-15T14:48:33;12.50;99.90
3246;DHT22;1635;48.000;10.582;2022-11-15T14:51:03;12.50;99.90
3246;DHT22;1635;48.000;10.582;2022-11-15T14:53:31;12.40;99.90
3246;DHT22;1635;48.000;10.582;2022-11-15T14:55:59;12.30;99.90
3246;DHT22;1635;48.000;10.582;2022-11-15T14:58:31;12.30;99.90
3246;DHT22;1635;48.000;10.582;2022-11-15T15:01:03;12.20;99.90
3246;DHT22;1635;48.000;10.582;2022-11-15T15:03:37;12.10;99.90
3246;DHT22;1635;48.000;10.582;2022-11-15T15:06:05;12.00;99.90
3246;DHT22;1635;48.000;10.582;2022-11-15T15:08:33;11.90;99.90
3246;DHT22;1635;48.000;10.582;2022-11-15T15:11:10;11.70;99.90
3246;DHT22;1635;48.000;10.582;2022-11-15T15:13:40;11.60;99.90
3246;DHT22;1635;48.000;10.582;2022-11-15T15:16:08;11.50;99.90
3246;DHT22;1635;48.000;10.582;2022-11-15T15:18:36;11.40;99.90
3246;DHT22;1635;48.000;10.582;2022-11-15T15:21:21;11.20;99.90
3246;DHT22;1635;48.000;10.582;2022-11-15T15:23:51;11.10;99.90
3246;DHT22;1635;48.000;10.582;2022-11-15T15:26:20;11.00;99.90
3246;DHT22;1635;48.000;10.582;2022-11-15T15:28:47;10.80;99.90
3246;DHT22;1635;48.000;10.582;2022-11-15T15:31:16;10.80;99.90
3246;DHT22;1635;48.000;10.582;2022-11-15T15:33:45;10.70;99.90
3246;DHT22;1635;48.000;10.582;2022-11-15T15:36:16;10.50;99.90
3246;DHT22;1635;48.000;10.582;2022-11-15T15:38:45;10.40;99.90
3246;DHT22;1635;48.000;10.582;2022-11-15T15:41:17;10.30;99.90
3246;DHT22;1635;48.000;10.582;2022-11-15T15:43:46;10.20;99.90
3246;DHT22;1635;48.000;10.582;2022-11-15T15:46:16;10.10;99.90
3246;DHT22;1635;48.000;10.582;2022-11-15T15:48:45;10.10;99.90
3246;DHT22;1635;48.000;10.582;2022-11-15T15:51:16;10.00;99.90
3246;DHT22;1635;48.000;10.582;2022-11-15T15:53:48;10.00;99.90
3246;DHT22;1635;48.000;10.582;2022-11-15T15:56:16;10.00;99.90
3246;DHT22;1635;48.000;10.582;2022-11-15T15:58:44;9.90;99.90
3246;DHT22;1635;48.000;10.582;2022-11-15T16:01:12;9.90;99.90
3246;DHT22;1635;48.000;10.582;2022-11-15T16:03:41;9.90;99.90
3246;DHT22;1635;48.000;10.582;2022-11-15T16:06:34;9.80;99.90
3246;DHT22;1635;48.000;10.582;2022-11-15T16:09:03;9.70;99.90
3246;DHT22;1635;48.000;10.582;2022-11-15T16:11:48;9.70;99.90
3246;DHT22;1635;48.000;10.582;2022-11-15T16:14:16;9.70;99.90
3246;DHT22;1635;48.000;10.582;2022-11-15T16:16:44;9.60;99.90
3246;DHT22;1635;48.000;10.582;2022-11-15T16:19:13;9.60;99.90
3246;DHT22;1635;48.000;10.582;2022-11-15T16:21:42;9.70;99.90
3246;DHT22;1635;48.000;10.582;2022-11-15T16:24:12;9.70;99.90
3246;DHT22;1635;48.000;10.582;2022-11-15T16:26:40;9.60;99.90
3246;DHT22;1635;48.000;10.582;2022-11-15T16:29:09;9.60;99.90
3246;DHT22;1635;48.000;10.582;2022-11-15T16:31:37;9.50;99.90
3246;DHT22;1635;48.000;10.582;2022-11-15T16:34:06;9.50;99.90
3246;DHT22;1635;48.000;10.582;2022-11-15T16:36:35;9.40;99.90
3246;DHT22;1635;48.000;10.582;2022-11-15T16:39:03;9.40;99.90
3246;DHT22;1635;48.000;10.582;2022-11-15T16:41:34;9.30;99.90
3246;DHT22;1635;48.000;10.582;2022-11-15T16:44:02;9.40;99.90
3246;DHT22;1635;48.000;10.582;2022-11-15T16:46:32;9.30;99.90
3246;DHT22;1635;48.000;10.582;2022-11-15T16:49:00;9.30;99.90
3246;DHT22;1635;48.000;10.582;2022-11-15T16:51:33;9.20;99.90
3246;DHT22;1635;48.000;10.582;2022-11-15T16:54:00;9.20;99.90
3246;DHT22;1635;48.000;10.582;2022-11-15T16:56:30;9.10;99.90
3246;DHT22;1635;48.000;10.582;2022-11-15T16:58:59;9.00;99.90
3246;DHT22;1635;48.000;10.582;2022-11-15T17:01:37;8.90;99.90
3246;DHT22;1635;48.000;10.582;2022-11-15T17:04:17;8.90;99.90
3246;DHT22;1635;48.000;10.582;2022-11-15T17:06:46;8.90;99.90
3246;DHT22;1635;48.000;10.582;2022-11-15T17:09:20;8.90;99.90
3246;DHT22;1635;48.000;10.582;2022-11-15T17:11:51;8.80;99.90
3246;DHT22;1635;48.000;10.582;2022-11-15T17:14:19;8.70;99.90
3246;DHT22;1635;48.000;10.582;2022-11-15T17:16:48;8.70;99.90
3246;DHT22;1635;48.000;10.582;2022-11-15T17:19:20;8.70;99.90
3246;DHT22;1635;48.000;10.582;2022-11-15T17:21:48;8.60;99.90
3246;DHT22;1635;48.000;10.582;2022-11-15T17:24:16;8.60;99.90
3246;DHT22;1635;48.000;10.582;2022-11-15T17:26:45;8.50;99.90
3246;DHT22;1635;48.000;10.582;2022-11-15T17:29:14;8.50;99.90
3246;DHT22;1635;48.000;10.582;2022-11-15T17:31:42;8.50;99.90
3246;DHT22;1635;48.000;10.582;2022-11-15T17:34:11;8.50;99.90
3246;DHT22;1635;48.000;10.582;2022-11-15T17:36:39;8.50;99.90
3246;DHT22;1635;48.000;10.582;2022-11-15T17:39:07;8.30;99.90
3246;DHT22;1635;48.000;10.582;2022-11-15T17:41:35;8.30;99.90
3246;DHT22;1635;48.000;10.582;2022-11-15T17:44:03;8.20;99.90
3246;DHT22;1635;48.000;10.582;2022-11-15T17:46:31;8.20;99.90
3246;DHT22;1635;48.000;10.582;2022-11-15T17:49:01;8.20;99.90
3246;DHT22;1635;48.000;10.582;2022-11-15T17:51:30;8.30;99.90
3246;DHT22;1635;48.000;10.582;2022-11-15T17:53:59;8.30;99.90
3246;DHT22;1635;48.000;10.582;2022-11-15T17:56:29;8.20;99.90
3246;DHT22;1635;48.000;10.582;2022-11-15T17:58:59;8.10;99.90
3246;DHT22;1635;48.000;10.582;2022-11-15T18:01:33;8.20;99.90
3246;DHT22;1635;48.000;10.582;2022-11-15T18:04:03;8.10;99.90
3246;DHT22;1635;48.000;10.582;2022-11-15T18:06:33;8.20;99.90
3246;DHT22;1635;48.000;10.582;2022-11-15T18:09:03;8.20;99.90
3246;DHT22;1635;48.000;10.582;2022-11-15T18:11:37;8.20;99.90
3246;DHT22;1635;48.000;10.582;2022-11-15T18:14:08;8.30;99.90
3246;DHT22;1635;48.000;10.582;2022-11-15T18:16:37;8.40;99.90
3246;DHT22;1635;48.000;10.582;2022-11-15T18:19:07;8.40;99.90
3246;DHT22;1635;48.000;10.582;2022-11-15T18:21:43;8.30;99.90
3246;DHT22;1635;48.000;10.582;2022-11-15T18:24:32;8.50;99.90
3246;DHT22;1635;48.000;10.582;2022-11-15T18:27:03;8.50;99.90
3246;DHT22;1635;48.000;10.582;2022-11-15T18:29:31;8.50;99.90
3246;DHT22;1635;48.000;10.582;2022-11-15T18:32:01;8.50;99.90
3246;DHT22;1635;48.000;10.582;2022-11-15T18:34:33;8.40;99.90
3246;DHT22;1635;48.000;10.582;2022-11-15T18:37:01;8.40;99.90
3246;DHT22;1635;48.000;10.582;2022-11-15T18:39:31;8.40;99.90
3246;DHT22;1635;48.000;10.582;2022-11-15T18:42:00;8.30;99.90
3246;DHT22;1635;48.000;10.582;2022-11-15T18:44:33;8.30;99.90
3246;DHT22;1635;48.000;10.582;2022-11-15T18:47:02;8.40;99.90
3246;DHT22;1635;48.000;10.582;2022-11-15T18:49:31;8.40;99.90
3246;DHT22;1635;48.000;10.582;2022-11-15T18:52:00;8.40;99.90
3246;DHT22;1635;48.000;10.582;2022-11-15T18:54:32;8.40;99.90
3246;DHT22;1635;48.000;10.582;2022-11-15T18:56:59;8.40;99.90
3246;DHT22;1635;48.000;10.582;2022-11-15T18:59:29;8.40;99.90
3246;DHT22;1635;48.000;10.582;2022-11-15T19:01:58;8.40;99.90
3246;DHT22;1635;48.000;10.582;2022-11-15T19:04:26;8.40;99.90
3246;DHT22;1635;48.000;10.582;2022-11-15T19:06:54;8.40;99.90
3246;DHT22;1635;48.000;10.582;2022-11-15T19:09:23;8.30;99.90
3246;DHT22;1635;48.000;10.582;2022-11-15T19:11:58;8.20;99.90
3246;DHT22;1635;48.000;10.582;2022-11-15T19:14:26;8.20;99.90
3246;DHT22;1635;48.000;10.582;2022-11-15T19:16:55;8.20;99.90
3246;DHT22;1635;48.000;10.582;2022-11-15T19:19:25;8.20;99.90
3246;DHT22;1635;48.000;10.582;2022-11-15T19:21:55;8.20;99.90
3246;DHT22;1635;48.000;10.582;2022-11-15T19:24:26;8.20;99.90
3246;DHT22;1635;48.000;10.582;2022-11-15T19:26:56;8.20;99.90
3246;DHT22;1635;48.000;10.582;2022-11-15T19:29:23;8.20;99.90
3246;DHT22;1635;48.000;10.582;2022-11-15T19:31:51;8.20;99.90
3246;DHT22;1635;48.000;10.582;2022-11-15T19:34:19;8.20;99.90
3246;DHT22;1635;48.000;10.582;2022-11-15T19:36:47;8.10;99.90
3246;DHT22;1635;48.000;10.582;2022-11-15T19:39:15;8.10;99.90
3246;DHT22;1635;48.000;10.582;2022-11-15T19:41:45;8.00;99.90
3246;DHT22;1635;48.000;10.582;2022-11-15T19:44:13;7.90;99.90
3246;DHT22;1635;48.000;10.582;2022-11-15T19:46:42;7.90;99.90
3246;DHT22;1635;48.000;10.582;2022-11-15T19:49:11;7.90;99.90
3246;DHT22;1635;48.000;10.582;2022-11-15T19:51:40;8.00;99.90
3246;DHT22;1635;48.000;10.582;2022-11-15T19:54:13;7.90;99.90
3246;DHT22;1635;48.000;10.582;2022-11-15T19:56:42;7.90;99.90
3246;DHT22;1635;48.000;10.582;2022-11-15T19:59:10;8.00;99.90
3246;DHT22;1635;48.000;10.582;2022-11-15T20:01:40;7.90;99.90
3246;DHT22;1635;48.000;10.582;2022-11-15T20:04:09;7.90;99.90
3246;DHT22;1635;48.000;10.582;2022-11-15T20:06:39;8.00;99.90
3246;DHT22;1635;48.000;10.582;2022-11-15T20:09:12;8.00;99.90
3246;DHT22;1635;48.000;10.582;2022-11-15T20:11:40;7.80;99.90
3246;DHT22;1635;48.000;10.582;2022-11-15T20:14:09;7.80;99.90
3246;DHT22;1635;48.000;10.582;2022-11-15T20:16:42;7.80;99.90